KSZL/SZL METAR and TAF weather

Enter ICAO airport designator
Station Type Date Time Source
KSZL METAR 2018/12/18 17:56 UTC NOAA

KSZL 181756Z 18008KT 10SM FEW250 13/02 A3002 RMK AO2A SLP171 T01260016 $


Station Type Date Time Source
KSZL Decoded METAR 2018/12/18 17:56 UTC NOAA

Whiteman Air Force Base, MO, United States (KSZL) 38-44N 093-33W
Dec 18, 2018 - 12:56 PM EST / 2018.12.18 1756 UTC
Wind: from the S (180 degrees) at 9 MPH (8 KT):0
Visibility: 10 mile(s):0
Sky conditions: mostly clear
Temperature: 54.7 F (12.6 C)
Dew Point: 34.9 F (1.6 C)
Relative Humidity: 47%
Pressure (altimeter): 30.02 in. Hg (1016 hPa)
ob: KSZL 181756Z 18008KT 10SM FEW250 13/02 A3002 RMK AO2A SLP171 T01260016
cycle: 18

Station Type Date Time Source
KSZL TAF 2018/12/18 11:09 UTC NOAA

TAF KSZL 181100Z 1811/1917 18009KT 9999 SCT150 QNH2998INS
BECMG 1823/1824 17006KT 9999 SCT020 BKN100 621004 QNH2992INS
BECMG 1905/1906 19006KT 8000 BR BKN010 OVC060 620904 QNH2990INS
BECMG 1907/1908 20006KT 4800 BR OVC005 620903 QNH2988INS
BECMG 1909/1910 20006KT 1600 BR OVC002 620903 QNH2988INS
TEMPO 1910/1914 0800 FG
BECMG 1913/1914 20006KT 4800 BR OVC007 620903 QNH2984INS TX12/1821Z TN00/1811Z


Example: see airport list